createdAt,value
2018-12-26T00:00:43.104Z,29.10
2018-12-26T00:01:43.235Z,29.30
2018-12-26T00:02:43.118Z,29.80
2018-12-26T00:03:43.125Z,30.10
2018-12-26T00:04:43.132Z,28.90
2018-12-26T00:05:43.213Z,30.40
2018-12-26T00:06:43.150Z,30.40
2018-12-26T00:07:43.160Z,30.00
2018-12-26T00:08:43.172Z,29.60
2018-12-26T00:09:43.189Z,30.20
2018-12-26T00:10:43.191Z,30.40
2018-12-26T00:11:43.202Z,29.70
2018-12-26T00:12:43.199Z,29.50
2018-12-26T00:13:43.209Z,29.90
2018-12-26T00:14:43.218Z,29.50
2018-12-26T00:15:43.220Z,30.10
2018-12-26T00:16:43.233Z,30.10
2018-12-26T00:17:43.236Z,30.40
2018-12-26T00:18:43.296Z,29.50
2018-12-26T00:19:43.293Z,29.50
2018-12-26T00:20:43.271Z,28.40
2018-12-26T00:21:43.281Z,29.50
2018-12-26T00:22:43.286Z,29.20
2018-12-26T00:23:43.300Z,29.20
2018-12-26T00:24:43.304Z,28.40
2018-12-26T00:25:43.328Z,28.10
2018-12-26T00:26:43.324Z,29.00
2018-12-26T00:27:43.327Z,29.40
2018-12-26T00:28:43.336Z,28.60
2018-12-26T00:29:43.356Z,29.00
2018-12-26T00:30:43.354Z,29.30
2018-12-26T00:31:43.440Z,28.50
2018-12-26T00:32:43.373Z,28.70
2018-12-26T00:33:43.390Z,29.00
2018-12-26T00:34:43.390Z,28.70
2018-12-26T00:35:43.404Z,29.60
2018-12-26T00:36:43.409Z,29.40
2018-12-26T00:37:43.416Z,29.50
2018-12-26T00:38:43.422Z,29.00
2018-12-26T00:39:43.436Z,29.00
2018-12-26T00:40:43.440Z,28.80
2018-12-26T00:41:43.448Z,28.70
2018-12-26T00:42:43.452Z,28.80
2018-12-26T00:43:43.462Z,29.00
2018-12-26T00:44:43.478Z,30.60
2018-12-26T00:45:43.482Z,29.90
2018-12-26T00:46:43.488Z,30.20
2018-12-26T00:47:43.491Z,29.80
2018-12-26T00:48:43.503Z,29.80
2018-12-26T00:49:43.514Z,29.80
2018-12-26T00:50:43.520Z,29.80
2018-12-26T00:51:43.530Z,28.50
2018-12-26T00:52:43.536Z,28.90
2018-12-26T00:53:43.539Z,29.00
2018-12-26T00:54:43.556Z,28.10
2018-12-26T00:55:43.560Z,29.80
2018-12-26T00:56:43.571Z,28.70
2018-12-26T00:57:43.576Z,28.60
2018-12-26T00:58:43.588Z,28.70
2018-12-26T00:59:43.596Z,28.90
2018-12-26T01:00:43.608Z,29.90
2018-12-26T01:01:43.626Z,29.20
2018-12-26T01:02:43.619Z,29.30
2018-12-26T01:03:43.648Z,29.70
2018-12-26T01:04:43.645Z,30.60
2018-12-26T01:05:43.678Z,29.90
2018-12-26T01:06:43.654Z,30.50
2018-12-26T01:07:43.668Z,29.50
2018-12-26T01:08:43.668Z,31.10
2018-12-26T01:09:43.676Z,31.00
2018-12-26T01:10:43.684Z,31.50
2018-12-26T01:11:43.707Z,32.00
2018-12-26T01:12:43.709Z,32.10
2018-12-26T01:13:43.709Z,32.30
2018-12-26T01:14:43.724Z,32.10
2018-12-26T01:15:43.729Z,33.40
2018-12-26T01:16:43.740Z,32.00
2018-12-26T01:17:43.748Z,31.60
2018-12-26T01:18:43.752Z,31.00
2018-12-26T01:19:43.762Z,30.70
2018-12-26T01:20:43.770Z,30.40
2018-12-26T01:21:43.787Z,30.60
2018-12-26T01:22:43.792Z,31.20
2018-12-26T01:23:43.790Z,31.30
2018-12-26T01:24:43.803Z,31.80
2018-12-26T01:25:43.816Z,33.20
2018-12-26T01:26:43.824Z,32.30
2018-12-26T01:27:43.831Z,33.30
2018-12-26T01:28:43.833Z,32.20
2018-12-26T01:29:43.877Z,32.00
2018-12-26T01:30:43.851Z,31.30
2018-12-26T01:31:43.873Z,31.20
2018-12-26T01:32:43.869Z,30.60
2018-12-26T01:33:43.885Z,30.90
2018-12-26T01:34:43.889Z,31.30
2018-12-26T01:35:43.891Z,32.00
2018-12-26T01:36:43.900Z,31.80
2018-12-26T01:37:43.911Z,32.70
2018-12-26T01:38:43.920Z,32.30
2018-12-26T01:39:43.923Z,33.50
2018-12-26T01:40:43.929Z,31.60
2018-12-26T01:41:43.947Z,31.40
2018-12-26T01:42:43.948Z,31.80
2018-12-26T01:43:43.969Z,31.20
2018-12-26T01:44:43.966Z,30.60
2018-12-26T01:45:43.973Z,31.00
2018-12-26T01:46:43.981Z,31.00
2018-12-26T01:47:44.019Z,31.00
2018-12-26T01:48:43.998Z,31.00
2018-12-26T01:49:44.003Z,32.50
2018-12-26T01:50:44.013Z,32.20
2018-12-26T01:51:44.021Z,32.50
2018-12-26T01:52:44.038Z,32.50
2018-12-26T01:53:44.041Z,32.10
2018-12-26T01:54:44.057Z,33.40
2018-12-26T01:55:44.063Z,32.60
2018-12-26T01:56:44.062Z,33.60
2018-12-26T01:57:44.081Z,32.80
2018-12-26T01:58:44.079Z,31.20
2018-12-26T01:59:44.088Z,31.80
2018-12-26T02:00:44.094Z,31.10
2018-12-26T02:01:44.105Z,30.80
2018-12-26T02:02:44.115Z,31.60
2018-12-26T02:03:44.117Z,31.20
2018-12-26T02:04:44.131Z,31.70
2018-12-26T02:05:44.137Z,31.50
2018-12-26T02:06:44.141Z,31.40
2018-12-26T02:07:44.154Z,31.40
2018-12-26T02:08:44.165Z,30.70
2018-12-26T02:09:44.165Z,30.90
2018-12-26T02:10:44.171Z,30.60
2018-12-26T02:11:44.184Z,30.70
2018-12-26T02:12:44.191Z,29.40
2018-12-26T02:13:44.197Z,31.20
2018-12-26T02:14:44.205Z,31.50
2018-12-26T02:15:44.213Z,32.90
2018-12-26T02:16:44.219Z,32.20
2018-12-26T02:17:44.227Z,32.30
2018-12-26T02:18:44.241Z,31.70
2018-12-26T02:19:44.251Z,32.70
2018-12-26T02:20:44.257Z,31.70
2018-12-26T02:21:44.261Z,31.00
2018-12-26T02:22:44.271Z,30.20
2018-12-26T02:23:44.291Z,30.20
2018-12-26T02:24:44.287Z,30.30
2018-12-26T02:25:44.305Z,31.50
2018-12-26T02:26:44.309Z,32.50
2018-12-26T02:27:44.314Z,32.10
2018-12-26T02:28:44.321Z,32.00
2018-12-26T02:29:44.325Z,30.80
2018-12-26T02:30:44.338Z,31.80
2018-12-26T02:31:44.348Z,31.40
2018-12-26T02:32:44.357Z,29.70
2018-12-26T02:33:44.362Z,30.30
2018-12-26T02:34:44.370Z,29.20
2018-12-26T02:35:44.374Z,30.10
2018-12-26T02:36:44.386Z,30.80
2018-12-26T02:37:44.378Z,30.70
2018-12-26T02:38:44.409Z,30.50
2018-12-26T02:39:44.406Z,30.00
2018-12-26T02:40:44.414Z,30.20
2018-12-26T02:41:44.425Z,31.10
2018-12-26T02:42:44.433Z,30.90
2018-12-26T02:43:44.437Z,30.80
2018-12-26T02:44:44.448Z,30.60
2018-12-26T02:45:44.460Z,30.70
2018-12-26T02:46:44.467Z,30.70
2018-12-26T02:47:44.476Z,32.10
2018-12-26T02:48:44.469Z,31.60
2018-12-26T02:49:44.490Z,30.50
2018-12-26T02:50:44.495Z,30.50
2018-12-26T02:51:44.498Z,29.70
2018-12-26T02:52:44.514Z,29.90
2018-12-26T02:53:44.520Z,30.00
2018-12-26T02:54:44.524Z,29.60
2018-12-26T02:55:44.536Z,29.80
2018-12-26T02:56:47.785Z,30.10
2018-12-26T02:57:44.622Z,30.10
2018-12-26T02:58:44.561Z,30.70
2018-12-26T02:59:44.572Z,30.00
2018-12-26T03:00:44.573Z,31.80
2018-12-26T03:01:44.595Z,30.60
2018-12-26T03:02:44.587Z,30.80
2018-12-26T03:03:44.597Z,29.80
2018-12-26T03:04:44.602Z,29.10
2018-12-26T03:05:44.613Z,30.20
2018-12-26T03:06:44.621Z,29.00
2018-12-26T03:07:44.624Z,29.00
2018-12-26T03:08:44.637Z,29.70
2018-12-26T03:09:44.642Z,29.40
2018-12-26T03:10:44.649Z,30.00
2018-12-26T03:11:44.655Z,29.10
2018-12-26T03:12:44.666Z,29.40
2018-12-26T03:13:44.674Z,29.80
2018-12-26T03:14:44.688Z,27.70
2018-12-26T03:15:44.689Z,29.20
2018-12-26T03:16:44.693Z,29.30
2018-12-26T03:17:44.701Z,29.30
2018-12-26T03:18:44.719Z,29.60
2018-12-26T03:19:44.727Z,30.00
2018-12-26T03:20:44.725Z,29.50
2018-12-26T03:21:44.738Z,29.90
2018-12-26T03:22:44.814Z,30.00
2018-12-26T03:23:44.755Z,28.00
2018-12-26T03:24:44.759Z,29.00
2018-12-26T03:25:44.761Z,28.10
2018-12-26T03:26:44.773Z,30.00
2018-12-26T03:27:44.783Z,29.50
2018-12-26T03:28:44.791Z,29.20
2018-12-26T03:29:44.796Z,29.00
2018-12-26T03:30:44.826Z,29.00
2018-12-26T03:31:44.814Z,29.30
2018-12-26T03:32:44.830Z,29.90
2018-12-26T03:33:44.835Z,28.90
2018-12-26T03:34:44.840Z,31.10
2018-12-26T03:35:44.840Z,30.20
2018-12-26T03:36:44.861Z,30.20
2018-12-26T03:37:44.857Z,29.10
2018-12-26T03:38:44.863Z,29.30
2018-12-26T03:39:44.877Z,29.80
2018-12-26T03:40:44.867Z,29.30
2018-12-26T03:41:44.894Z,30.20
2018-12-26T03:42:45.020Z,29.10
2018-12-26T03:43:44.905Z,29.70
2018-12-26T03:44:45.643Z,29.90
2018-12-26T03:45:44.918Z,28.30
2018-12-26T03:46:45.642Z,28.90
2018-12-26T03:47:44.939Z,27.90
2018-12-26T03:48:44.953Z,27.00
2018-12-26T03:49:44.956Z,27.60
2018-12-26T03:50:44.955Z,28.20
2018-12-26T03:51:44.966Z,29.80
2018-12-26T03:52:44.974Z,27.90
2018-12-26T03:53:44.993Z,28.20
2018-12-26T03:54:45.001Z,28.30
2018-12-26T03:55:45.001Z,28.30
2018-12-26T03:56:45.038Z,28.40
2018-12-26T03:57:45.012Z,27.80
2018-12-26T03:58:45.027Z,27.40
2018-12-26T03:59:45.037Z,27.40
2018-12-26T04:00:45.060Z,27.60
2018-12-26T04:01:45.048Z,27.60
2018-12-26T04:02:45.058Z,27.40
2018-12-26T04:03:45.146Z,27.00
2018-12-26T04:04:45.080Z,27.50
2018-12-26T04:05:45.080Z,26.80
2018-12-26T04:06:45.086Z,26.20
2018-12-26T04:07:45.091Z,26.60
2018-12-26T04:08:45.103Z,26.50
2018-12-26T04:09:45.113Z,27.70
2018-12-26T04:10:45.117Z,26.90
2018-12-26T04:11:45.119Z,26.60
2018-12-26T04:12:45.127Z,27.30
2018-12-26T04:13:45.147Z,26.50
2018-12-26T04:14:45.154Z,27.30
2018-12-26T04:15:45.151Z,26.40
2018-12-26T04:16:45.167Z,27.10
2018-12-26T04:17:45.169Z,26.50
2018-12-26T04:18:45.180Z,28.60
2018-12-26T04:19:45.187Z,28.00
2018-12-26T04:20:45.199Z,26.70
2018-12-26T04:21:45.201Z,26.80
2018-12-26T04:22:45.207Z,28.30
2018-12-26T04:23:45.215Z,27.90
2018-12-26T04:24:45.222Z,27.90
2018-12-26T04:25:45.228Z,27.30
2018-12-26T04:26:45.235Z,27.50
2018-12-26T04:27:45.244Z,27.10
2018-12-26T04:28:45.258Z,28.60
2018-12-26T04:29:45.261Z,26.50
2018-12-26T04:30:45.294Z,26.80
2018-12-26T04:31:45.269Z,26.20
2018-12-26T04:32:45.283Z,27.60
2018-12-26T04:33:45.298Z,27.30
2018-12-26T04:34:45.298Z,26.60
2018-12-26T04:35:45.310Z,27.60
2018-12-26T04:36:45.312Z,27.00
2018-12-26T04:37:45.327Z,27.70
2018-12-26T04:38:45.336Z,26.80
2018-12-26T04:39:45.335Z,26.80
2018-12-26T04:40:45.347Z,26.40
2018-12-26T04:41:45.351Z,26.40
2018-12-26T04:42:45.365Z,25.80
2018-12-26T04:43:45.371Z,25.60
2018-12-26T04:44:45.377Z,25.80
2018-12-26T04:45:45.380Z,25.50
2018-12-26T04:46:45.390Z,27.30
2018-12-26T04:47:45.386Z,26.50
2018-12-26T04:48:45.411Z,27.30
2018-12-26T04:49:46.144Z,26.20
2018-12-26T04:50:45.418Z,26.60
2018-12-26T04:51:45.435Z,25.90
2018-12-26T04:52:45.436Z,26.20
2018-12-26T04:53:45.454Z,26.30
2018-12-26T04:54:45.458Z,26.50
2018-12-26T04:55:45.474Z,26.70
2018-12-26T04:56:45.471Z,25.90
2018-12-26T04:57:45.486Z,25.10
2018-12-26T04:58:45.483Z,26.30
2018-12-26T04:59:45.488Z,26.40
2018-12-26T05:00:45.499Z,25.10
2018-12-26T05:01:45.505Z,25.90
2018-12-26T05:02:45.516Z,25.60
2018-12-26T05:03:45.554Z,25.70
2018-12-26T05:04:45.532Z,25.10
2018-12-26T05:05:45.538Z,25.80
2018-12-26T05:06:45.548Z,25.70
2018-12-26T05:07:45.558Z,25.30
2018-12-26T05:08:45.559Z,25.40
2018-12-26T05:09:45.584Z,25.40
2018-12-26T05:10:45.576Z,26.20
2018-12-26T05:11:45.648Z,26.30
2018-12-26T05:12:45.593Z,26.90
2018-12-26T05:13:45.600Z,27.00
2018-12-26T05:14:45.602Z,27.50
2018-12-26T05:15:45.613Z,27.30
2018-12-26T05:16:45.626Z,28.20
2018-12-26T05:17:45.630Z,27.80
2018-12-26T05:18:45.638Z,27.20
2018-12-26T05:19:45.639Z,27.20
2018-12-26T05:20:45.652Z,27.80
2018-12-26T05:21:45.659Z,27.80
2018-12-26T05:22:45.664Z,25.60
2018-12-26T05:23:45.670Z,27.70
2018-12-26T05:24:45.679Z,26.70
2018-12-26T05:25:45.694Z,26.90
2018-12-26T05:26:45.700Z,26.30
2018-12-26T05:27:45.699Z,27.10
2018-12-26T05:28:45.726Z,27.10
2018-12-26T05:29:45.715Z,25.70
2018-12-26T05:30:45.725Z,25.80
2018-12-26T05:31:45.731Z,26.20
2018-12-26T05:32:45.738Z,26.20
2018-12-26T05:33:45.751Z,26.80
2018-12-26T05:34:45.767Z,27.00
2018-12-26T05:35:45.784Z,27.50
2018-12-26T05:36:45.768Z,26.80
2018-12-26T05:37:45.775Z,26.80
2018-12-26T05:38:45.787Z,26.20
2018-12-26T05:39:45.789Z,27.20
2018-12-26T05:40:45.797Z,26.80
2018-12-26T05:41:45.925Z,27.20
2018-12-26T05:42:45.827Z,27.30
2018-12-26T05:43:45.831Z,25.50
2018-12-26T05:44:45.836Z,26.20
2018-12-26T05:45:45.847Z,26.40
2018-12-26T05:46:45.849Z,26.50
2018-12-26T05:47:45.857Z,26.20
2018-12-26T05:48:45.855Z,26.50
2018-12-26T05:49:45.863Z,26.20
2018-12-26T05:50:45.877Z,27.00
2018-12-26T05:51:45.887Z,26.20
2018-12-26T05:52:45.891Z,25.90
2018-12-26T05:53:45.902Z,26.80
2018-12-26T05:54:45.902Z,25.70
2018-12-26T05:55:45.909Z,26.90
2018-12-26T05:56:45.915Z,25.90
2018-12-26T05:57:45.925Z,26.20
2018-12-26T05:58:45.939Z,25.80
2018-12-26T05:59:45.937Z,26.50
2018-12-26T06:00:45.948Z,27.50
2018-12-26T06:01:45.951Z,25.60
2018-12-26T06:02:45.962Z,25.90
2018-12-26T06:03:45.969Z,26.60
2018-12-26T06:04:45.977Z,25.90
2018-12-26T06:05:45.985Z,25.50
2018-12-26T06:06:45.989Z,27.50
2018-12-26T06:07:45.999Z,25.50
2018-12-26T06:08:46.007Z,26.00
2018-12-26T06:09:46.015Z,25.50
2018-12-26T06:10:46.019Z,26.40
2018-12-26T06:11:46.026Z,26.30
2018-12-26T06:12:46.035Z,25.70
2018-12-26T06:13:46.045Z,25.70
2018-12-26T06:14:46.047Z,26.10
2018-12-26T06:15:46.069Z,24.70
2018-12-26T06:16:46.067Z,25.30
2018-12-26T06:17:46.076Z,25.40
2018-12-26T06:18:46.083Z,25.40
2018-12-26T06:19:46.088Z,25.40
2018-12-26T06:20:46.103Z,25.70
2018-12-26T06:21:46.103Z,24.50
2018-12-26T06:22:46.105Z,25.00
2018-12-26T06:23:46.113Z,25.80
2018-12-26T06:24:46.127Z,24.90
2018-12-26T06:25:46.128Z,24.80
2018-12-26T06:26:46.147Z,24.90
2018-12-26T06:27:51.418Z,24.80
2018-12-26T06:28:46.156Z,25.60
2018-12-26T06:29:46.163Z,25.80
2018-12-26T06:30:46.171Z,25.40
2018-12-26T06:31:46.177Z,25.20
2018-12-26T06:32:46.183Z,25.50
2018-12-26T06:33:46.197Z,26.30
2018-12-26T06:34:46.200Z,25.90
2018-12-26T06:35:46.206Z,26.20
2018-12-26T06:36:46.213Z,25.60
2018-12-26T06:37:46.221Z,25.80
2018-12-26T06:38:46.228Z,25.30
2018-12-26T06:39:46.231Z,25.50
2018-12-26T06:40:46.243Z,25.90
2018-12-26T06:41:46.251Z,24.50
2018-12-26T06:42:46.262Z,24.70
2018-12-26T06:43:46.267Z,25.90
2018-12-26T06:44:46.275Z,26.50
2018-12-26T06:45:46.279Z,24.90
2018-12-26T06:46:46.289Z,25.40
2018-12-26T06:47:46.293Z,25.60
2018-12-26T06:48:46.299Z,24.40
2018-12-26T06:49:46.312Z,24.40
2018-12-26T06:50:46.315Z,25.20
2018-12-26T06:51:46.323Z,25.20
2018-12-26T06:52:46.334Z,25.10
2018-12-26T06:53:46.343Z,24.60
2018-12-26T06:54:46.347Z,23.80
2018-12-26T06:55:46.353Z,24.70
2018-12-26T06:56:46.366Z,23.60
2018-12-26T06:57:46.373Z,24.10
2018-12-26T06:58:46.379Z,24.90
2018-12-26T06:59:46.386Z,25.30
2018-12-26T07:00:46.391Z,24.80
2018-12-26T07:01:46.396Z,24.40
2018-12-26T07:02:46.404Z,23.70
2018-12-26T07:03:46.416Z,24.20
2018-12-26T07:04:46.426Z,24.10
2018-12-26T07:05:46.430Z,24.00
2018-12-26T07:06:46.434Z,24.10
2018-12-26T07:07:46.446Z,24.40
2018-12-26T07:08:46.455Z,25.40
2018-12-26T07:09:46.463Z,23.80
2018-12-26T07:10:46.466Z,24.40
2018-12-26T07:11:46.470Z,23.50
2018-12-26T07:12:46.480Z,24.20
2018-12-26T07:13:46.490Z,23.90
2018-12-26T07:14:46.498Z,23.80
2018-12-26T07:15:46.511Z,24.10
2018-12-26T07:16:46.510Z,24.60
2018-12-26T07:17:46.518Z,23.80
2018-12-26T07:18:46.530Z,24.20
2018-12-26T07:19:46.532Z,24.90
2018-12-26T07:20:46.538Z,24.20
2018-12-26T07:21:47.916Z,24.30
2018-12-26T07:22:46.556Z,24.20
2018-12-26T07:23:46.558Z,23.30
2018-12-26T07:24:46.584Z,23.90
2018-12-26T07:25:46.583Z,23.30
2018-12-26T07:26:46.588Z,23.70
2018-12-26T07:27:46.590Z,23.10
2018-12-26T07:28:46.596Z,24.10
2018-12-26T07:29:46.609Z,23.70
2018-12-26T07:30:46.616Z,24.10
2018-12-26T07:31:46.620Z,23.90
2018-12-26T07:32:46.626Z,23.80
2018-12-26T07:33:46.640Z,25.00
2018-12-26T07:34:46.652Z,25.10
2018-12-26T07:35:46.652Z,25.00
2018-12-26T07:36:46.657Z,24.40
2018-12-26T07:37:46.668Z,25.10
2018-12-26T07:38:46.674Z,24.40
2018-12-26T07:39:46.687Z,24.80
2018-12-26T07:40:46.686Z,23.70
2018-12-26T07:41:46.698Z,24.70
2018-12-26T07:42:46.700Z,24.10
2018-12-26T07:43:46.714Z,24.70
2018-12-26T07:44:46.714Z,24.70
2018-12-26T07:45:46.730Z,24.00
2018-12-26T07:46:46.732Z,24.40
2018-12-26T07:47:46.739Z,24.40
2018-12-26T07:48:46.742Z,25.60
2018-12-26T07:49:46.752Z,25.90
2018-12-26T07:50:46.768Z,26.70
2018-12-26T07:51:46.774Z,27.10
2018-12-26T07:52:46.780Z,26.60
2018-12-26T07:53:46.781Z,27.00
2018-12-26T07:54:46.802Z,26.50
2018-12-26T07:55:46.799Z,27.20
2018-12-26T07:56:46.801Z,27.70
2018-12-26T07:57:46.814Z,26.90
2018-12-26T07:58:46.832Z,29.20
2018-12-26T07:59:46.822Z,27.90
2018-12-26T08:00:46.832Z,27.60
2018-12-26T08:01:46.842Z,28.30
2018-12-26T08:02:46.847Z,27.60
2018-12-26T08:03:46.854Z,28.90
2018-12-26T08:04:46.862Z,28.80
2018-12-26T08:05:46.873Z,29.90
2018-12-26T08:06:46.878Z,28.30
2018-12-26T08:07:46.882Z,29.00
2018-12-26T08:08:46.983Z,27.60
2018-12-26T08:09:46.896Z,27.90
2018-12-26T08:10:46.906Z,28.00
2018-12-26T08:11:46.904Z,29.00
2018-12-26T08:12:46.918Z,28.50
2018-12-26T08:13:46.924Z,27.70
2018-12-26T08:14:46.930Z,28.10
2018-12-26T08:15:46.934Z,26.60
2018-12-26T08:16:46.944Z,26.20
2018-12-26T08:17:46.955Z,26.90
2018-12-26T08:18:46.956Z,26.30
2018-12-26T08:19:46.960Z,27.00
2018-12-26T08:20:46.968Z,27.10
2018-12-26T08:21:46.974Z,27.20
2018-12-26T08:22:46.987Z,26.80
2018-12-26T08:23:46.990Z,27.40
2018-12-26T08:24:46.996Z,26.10
2018-12-26T08:25:47.004Z,27.70
2018-12-26T08:26:47.015Z,27.80
2018-12-26T08:27:47.017Z,27.00
2018-12-26T08:28:47.021Z,26.80
2018-12-26T08:29:47.029Z,27.90
2018-12-26T08:30:47.035Z,26.50
2018-12-26T08:31:47.041Z,26.70
2018-12-26T08:32:47.047Z,27.40
2018-12-26T08:33:47.053Z,27.00
2018-12-26T08:34:47.065Z,25.90
2018-12-26T08:35:47.094Z,26.00
2018-12-26T08:36:47.077Z,25.00
2018-12-26T08:37:47.086Z,25.20
2018-12-26T08:38:47.089Z,24.80
2018-12-26T08:39:47.099Z,23.90
2018-12-26T08:40:47.102Z,23.30
2018-12-26T08:41:47.114Z,22.90
2018-12-26T08:42:47.113Z,23.40
2018-12-26T08:43:47.125Z,24.20
2018-12-26T08:44:47.126Z,23.20
2018-12-26T08:45:47.139Z,23.90
2018-12-26T08:46:47.155Z,24.30
2018-12-26T08:47:47.153Z,23.40
2018-12-26T08:48:47.267Z,24.50
2018-12-26T08:49:47.169Z,23.20
2018-12-26T08:50:47.173Z,24.30
2018-12-26T08:51:47.175Z,23.50
2018-12-26T08:52:47.188Z,24.60
2018-12-26T08:53:47.192Z,24.00
2018-12-26T08:54:47.207Z,24.80
2018-12-26T08:55:47.207Z,25.90
2018-12-26T08:56:47.297Z,25.10
2018-12-26T08:57:47.228Z,23.70
2018-12-26T08:58:47.315Z,22.80
2018-12-26T08:59:47.237Z,24.00
2018-12-26T09:00:48.144Z,24.60
2018-12-26T09:01:47.253Z,25.40
2018-12-26T09:02:47.303Z,25.10
2018-12-26T09:03:47.266Z,25.50
2018-12-26T09:04:47.275Z,25.30
2018-12-26T09:05:47.291Z,25.80
2018-12-26T09:06:47.294Z,24.90
2018-12-26T09:07:47.295Z,25.00
2018-12-26T09:08:47.300Z,25.30
2018-12-26T09:09:47.311Z,24.40
2018-12-26T09:10:47.316Z,25.10
2018-12-26T09:11:47.326Z,24.80
2018-12-26T09:12:47.326Z,25.20
2018-12-26T09:13:47.336Z,25.60
2018-12-26T09:14:47.438Z,25.10
2018-12-26T09:15:47.349Z,24.70
2018-12-26T09:16:47.358Z,25.30
2018-12-26T09:17:47.363Z,24.50
2018-12-26T09:18:47.379Z,25.10
2018-12-26T09:19:47.379Z,24.80
2018-12-26T09:20:47.391Z,25.00
2018-12-26T09:21:47.401Z,24.30
2018-12-26T09:22:47.406Z,25.70
2018-12-26T09:23:47.410Z,25.10
2018-12-26T09:24:47.420Z,26.00
2018-12-26T09:25:47.427Z,25.70
2018-12-26T09:26:47.438Z,24.90
2018-12-26T09:27:47.440Z,25.70
2018-12-26T09:28:47.448Z,25.50
2018-12-26T09:29:47.468Z,25.50
2018-12-26T09:30:47.467Z,25.00
2018-12-26T09:31:47.472Z,25.40
2018-12-26T09:32:47.490Z,25.80
2018-12-26T09:33:47.495Z,25.20
2018-12-26T09:34:47.493Z,25.20
2018-12-26T09:35:47.500Z,24.10
2018-12-26T09:36:47.508Z,24.80
2018-12-26T09:37:47.512Z,24.40
2018-12-26T09:38:47.526Z,24.40
2018-12-26T09:39:47.533Z,25.40
2018-12-26T09:40:47.548Z,24.70
2018-12-26T09:41:47.550Z,25.40
2018-12-26T09:42:47.556Z,25.30
2018-12-26T09:43:47.566Z,25.10
2018-12-26T09:44:54.360Z,24.80
2018-12-26T09:45:47.576Z,25.10
2018-12-26T09:46:47.585Z,25.10
2018-12-26T09:47:47.595Z,25.90
2018-12-26T09:48:47.601Z,26.20
2018-12-26T09:49:47.607Z,25.70
2018-12-26T09:50:47.687Z,25.60
2018-12-26T09:51:47.621Z,25.80
2018-12-26T09:52:47.632Z,24.90
2018-12-26T09:53:47.634Z,26.00
2018-12-26T09:54:49.276Z,25.70
2018-12-26T09:55:47.645Z,25.40
2018-12-26T09:56:47.663Z,25.30
2018-12-26T09:57:47.691Z,26.50
2018-12-26T09:58:52.518Z,26.50
2018-12-26T09:59:47.695Z,26.00
2018-12-26T10:00:47.688Z,25.20
2018-12-26T10:01:47.702Z,24.40
2018-12-26T10:02:47.707Z,25.00
2018-12-26T10:03:47.709Z,24.70
2018-12-26T10:04:47.719Z,24.60
2018-12-26T10:05:47.735Z,24.20
2018-12-26T10:06:47.740Z,25.40
2018-12-26T10:07:47.752Z,24.80
2018-12-26T10:08:47.757Z,24.10
2018-12-26T10:09:47.774Z,24.00
2018-12-26T10:10:47.767Z,23.80
2018-12-26T10:11:47.772Z,24.00
2018-12-26T10:12:47.784Z,23.60
2018-12-26T10:13:47.816Z,24.20
2018-12-26T10:14:47.806Z,23.60
2018-12-26T10:15:47.808Z,23.50
2018-12-26T10:16:47.812Z,23.20
2018-12-26T10:17:47.826Z,24.50
2018-12-26T10:18:47.828Z,23.70
2018-12-26T10:19:47.838Z,23.10
2018-12-26T10:20:47.846Z,23.70
2018-12-26T10:21:47.858Z,23.20
2018-12-26T10:22:47.877Z,22.80
2018-12-26T10:23:47.874Z,23.50
2018-12-26T10:24:47.882Z,23.70
2018-12-26T10:25:47.888Z,24.00
2018-12-26T10:26:47.897Z,24.40
2018-12-26T10:27:47.923Z,24.00
2018-12-26T10:28:47.931Z,23.70
2018-12-26T10:29:47.945Z,23.10
2018-12-26T10:30:47.932Z,22.50
2018-12-26T10:31:47.942Z,23.00
2018-12-26T10:32:47.952Z,23.30
2018-12-26T10:33:47.954Z,22.70
2018-12-26T10:34:47.977Z,22.00
2018-12-26T10:35:47.979Z,21.10
2018-12-26T10:36:47.981Z,21.70
2018-12-26T10:37:47.995Z,21.60
2018-12-26T10:38:48.001Z,22.10
2018-12-26T10:39:48.005Z,20.80
2018-12-26T10:40:48.011Z,23.00
2018-12-26T10:41:48.019Z,22.40
2018-12-26T10:42:48.029Z,20.90
2018-12-26T10:43:48.039Z,20.80
2018-12-26T10:44:48.045Z,20.30
2018-12-26T10:45:48.057Z,19.30
2018-12-26T10:46:48.067Z,20.60
2018-12-26T10:47:48.072Z,20.60
2018-12-26T10:48:48.083Z,20.60
2018-12-26T10:49:48.095Z,21.90
2018-12-26T10:50:48.104Z,21.00
2018-12-26T10:51:48.111Z,20.30
2018-12-26T10:52:48.121Z,22.00
2018-12-26T10:53:48.131Z,22.90
2018-12-26T10:54:48.145Z,21.10
2018-12-26T10:55:48.144Z,21.30
2018-12-26T10:56:48.153Z,20.20
2018-12-26T10:57:48.168Z,19.80
2018-12-26T10:58:48.179Z,20.30
2018-12-26T10:59:48.183Z,19.40
2018-12-26T11:00:48.203Z,19.70
2018-12-26T11:01:48.199Z,20.00
2018-12-26T11:02:48.209Z,19.70
2018-12-26T11:03:48.219Z,19.40
2018-12-26T11:04:48.700Z,19.10
2018-12-26T11:05:48.239Z,19.10
2018-12-26T11:06:48.247Z,18.70
2018-12-26T11:07:48.257Z,19.30
2018-12-26T11:08:48.269Z,19.60
2018-12-26T11:09:48.269Z,19.30
2018-12-26T11:10:48.286Z,20.20
2018-12-26T11:11:48.291Z,18.30
2018-12-26T11:12:48.301Z,19.40
2018-12-26T11:13:48.317Z,19.80
2018-12-26T11:14:48.321Z,18.70
2018-12-26T11:15:48.329Z,18.30
2018-12-26T11:16:48.419Z,19.00
2018-12-26T11:17:48.349Z,18.60
2018-12-26T11:18:48.361Z,19.00
2018-12-26T11:19:48.377Z,19.00
2018-12-26T11:20:48.384Z,20.00
2018-12-26T11:21:48.388Z,20.00
2018-12-26T11:22:48.399Z,19.60
2018-12-26T11:23:48.406Z,20.30
2018-12-26T11:24:48.420Z,19.30
2018-12-26T11:25:48.426Z,20.80
2018-12-26T11:26:48.435Z,21.80
2018-12-26T11:27:48.443Z,18.20
2018-12-26T11:28:48.451Z,17.30
2018-12-26T11:29:48.465Z,16.90
2018-12-26T11:30:48.473Z,16.10
2018-12-26T11:31:48.482Z,16.70
2018-12-26T11:32:48.489Z,17.00
2018-12-26T11:33:48.498Z,16.10
2018-12-26T11:34:48.509Z,16.20
2018-12-26T11:35:48.516Z,16.90
2018-12-26T11:36:48.530Z,16.50
2018-12-26T11:37:48.533Z,17.20
2018-12-26T11:38:48.549Z,17.50
2018-12-26T11:39:48.557Z,16.60
2018-12-26T11:40:48.564Z,17.30
2018-12-26T11:41:48.572Z,16.60
2018-12-26T11:42:48.586Z,17.10
2018-12-26T11:43:48.590Z,16.90
2018-12-26T11:44:48.603Z,17.00
2018-12-26T11:45:48.615Z,16.90
2018-12-26T11:46:48.619Z,16.60
2018-12-26T11:47:48.630Z,17.00
2018-12-26T11:48:48.637Z,16.00
2018-12-26T11:49:48.652Z,16.90
2018-12-26T11:50:48.660Z,16.50
2018-12-26T11:51:48.674Z,16.30
2018-12-26T11:52:48.667Z,15.90
2018-12-26T11:53:48.690Z,16.90
2018-12-26T11:54:48.700Z,16.20
2018-12-26T11:55:48.708Z,16.10
2018-12-26T11:56:48.722Z,16.40
2018-12-26T11:57:48.728Z,15.00
2018-12-26T11:58:48.740Z,15.00
2018-12-26T11:59:48.752Z,16.20
2018-12-26T12:00:48.759Z,15.80
2018-12-26T12:01:48.766Z,16.40
2018-12-26T12:02:48.776Z,15.80
2018-12-26T12:03:48.787Z,15.70
2018-12-26T12:04:48.798Z,15.50
2018-12-26T12:05:48.807Z,15.40
2018-12-26T12:06:48.817Z,15.50
2018-12-26T12:07:48.836Z,14.90
2018-12-26T12:08:48.835Z,15.40
2018-12-26T12:09:48.846Z,14.70
2018-12-26T12:10:50.180Z,15.00
2018-12-26T12:11:48.884Z,15.00
2018-12-26T12:12:48.879Z,15.80
2018-12-26T12:13:48.892Z,14.30
2018-12-26T12:14:48.904Z,14.90
2018-12-26T12:15:48.915Z,15.10
2018-12-26T12:16:48.920Z,15.70
2018-12-26T12:17:48.934Z,15.60
2018-12-26T12:18:48.945Z,15.70
2018-12-26T12:19:48.952Z,15.70
2018-12-26T12:20:48.966Z,15.80
2018-12-26T12:21:48.975Z,15.30
2018-12-26T12:22:48.986Z,15.00
2018-12-26T12:23:48.993Z,14.80
2018-12-26T12:24:49.001Z,14.70
2018-12-26T12:25:49.013Z,14.90
2018-12-26T12:26:49.027Z,14.70
2018-12-26T12:27:49.041Z,14.90
2018-12-26T12:28:49.055Z,15.50
2018-12-26T12:29:49.064Z,14.70
2018-12-26T12:30:49.069Z,14.60
2018-12-26T12:31:49.079Z,14.70
2018-12-26T12:32:49.087Z,15.70
2018-12-26T12:33:49.097Z,14.50
2018-12-26T12:34:49.111Z,16.20
2018-12-26T12:35:49.125Z,16.70
2018-12-26T12:36:49.132Z,15.10
2018-12-26T12:37:49.149Z,14.20
2018-12-26T12:38:49.147Z,13.50
2018-12-26T12:39:49.166Z,14.00
2018-12-26T12:40:49.175Z,14.40
2018-12-26T12:41:49.179Z,13.80
2018-12-26T12:42:49.197Z,13.50
2018-12-26T12:43:49.199Z,14.50
2018-12-26T12:44:49.205Z,14.40
2018-12-26T12:45:49.223Z,14.40
2018-12-26T12:46:49.290Z,14.50
2018-12-26T12:47:49.239Z,13.90
2018-12-26T12:48:49.255Z,13.70
2018-12-26T12:49:49.265Z,13.80
2018-12-26T12:50:49.281Z,13.20
2018-12-26T12:51:49.290Z,13.30
2018-12-26T12:52:49.305Z,12.80